PWSweather.com
Personal Weather Stations
Station Observations
ALMOSTER
Urb. Mas Carreras, AlmosterES 43393

Urb. Mas CarrerasAlmosterES 43393

Lat: 41.1908333333, Lon: 1.1086111111

Elevation: 836.6

Station Type: Davis Vantage Pro 2

http://www.meteoalmoster.net

High Low Average
Temperature 57.9°F14.4°C 47.7°F8.7°C 53.7°F12.1°C
Dew Point 46.0°F7.8°C 34.5°F1.4°C 38.1°F3.4°C
Winds 34.0 mph 54.7 kmh 5.0 mph 8.0 kmh 17.0 mph WSW27.4 kmh WSW
Wind Gusts 61.0 mph98.2 kmh 14.0 mph22.5 kmh 32.0 mph51.5 kmh
Humidity 67% 46% 56%
Pressure 30.36 in1028.1 mb 30.13 in1020.3 mb -
Precipitation 0.00 in0.0 mm - -
Hour Temp Dew Point Humidity Winds Wind Gusts Pressure Precip Precip Rate Daily Precip Total
12:00 AM 53.4°F11.9°C 39.9°F4.4°C 60% 20.0 mph W32.2 kmh W 38.0 mph61.2 kmh 30.13 in1020.3 mb 0.00 in0.0 mm 0.00 in0.0 mm 0.00 in0.0 mm
12:30 AM 52.7°F11.5°C 36.5°F2.5°C 54% 19.0 mph WNW30.6 kmh WNW 32.0 mph51.5 kmh 30.14 in1020.7 mb 0.00 in0.0 mm 0.00 in0.0 mm 0.00 in0.0 mm
01:00 AM 52.2°F11.2°C 34.5°F1.4°C 51% 15.0 mph W24.1 kmh W 33.0 mph53.1 kmh 30.15 in1021.0 mb 0.00 in0.0 mm 0.00 in0.0 mm 0.00 in0.0 mm
01:30 AM 51.3°F10.7°C 36.1°F2.3°C 56% 12.0 mph W19.3 kmh W 25.0 mph40.2 kmh 30.17 in1021.7 mb 0.00 in0.0 mm 0.00 in0.0 mm 0.00 in0.0 mm
02:00 AM 50.9°F10.5°C 37.0°F2.8°C 59% 9.0 mph W14.5 kmh W 18.0 mph29.0 kmh 30.18 in1022.0 mb 0.00 in0.0 mm 0.00 in0.0 mm 0.00 in0.0 mm
02:30 AM 51.3°F10.7°C 36.9°F2.7°C 58% 19.0 mph W30.6 kmh W 33.0 mph53.1 kmh 30.20 in1022.7 mb 0.00 in0.0 mm 0.00 in0.0 mm 0.00 in0.0 mm
03:00 AM 51.3°F10.7°C 36.5°F2.5°C 57% 19.0 mph WNW30.6 kmh WNW 33.0 mph53.1 kmh 30.22 in1023.4 mb 0.00 in0.0 mm 0.00 in0.0 mm 0.00 in0.0 mm
03:30 AM 51.4°F10.8°C 35.4°F1.9°C 54% 14.0 mph WNW22.5 kmh WNW 34.0 mph54.7 kmh 30.24 in1024.0 mb 0.00 in0.0 mm 0.00 in0.0 mm 0.00 in0.0 mm
04:00 AM 51.6°F10.9°C 36.0°F2.2°C 55% 17.0 mph W27.4 kmh W 37.0 mph59.5 kmh 30.25 in1024.4 mb 0.00 in0.0 mm 0.00 in0.0 mm 0.00 in0.0 mm
04:30 AM 51.3°F10.7°C 36.0°F2.2°C 56% 19.0 mph W30.6 kmh W 34.0 mph54.7 kmh 30.24 in1024.0 mb 0.00 in0.0 mm 0.00 in0.0 mm 0.00 in0.0 mm
05:00 AM 50.7°F10.4°C 35.2°F1.8°C 55% 19.0 mph WNW30.6 kmh WNW 34.0 mph54.7 kmh 30.26 in1024.7 mb 0.00 in0.0 mm 0.00 in0.0 mm 0.00 in0.0 mm
05:30 AM 50.5°F10.3°C 35.4°F1.9°C 56% 20.0 mph W32.2 kmh W 35.0 mph56.3 kmh 30.26 in1024.7 mb 0.00 in0.0 mm 0.00 in0.0 mm 0.00 in0.0 mm
06:00 AM 49.5°F9.7°C 35.8°F2.1°C 59% 16.0 mph W25.7 kmh W 29.0 mph46.7 kmh 30.27 in1025.1 mb 0.00 in0.0 mm 0.00 in0.0 mm 0.00 in0.0 mm
06:30 AM 47.7°F8.7°C 35.8°F2.1°C 63% 20.0 mph W32.2 kmh W 35.0 mph56.3 kmh 30.27 in1025.1 mb 0.00 in0.0 mm 0.00 in0.0 mm 0.00 in0.0 mm
07:00 AM 47.7°F8.7°C 35.8°F2.1°C 63% 23.0 mph W37.0 kmh W 38.0 mph61.2 kmh 30.29 in1025.7 mb 0.00 in0.0 mm 0.00 in0.0 mm 0.00 in0.0 mm
07:30 AM 48.7°F9.3°C 35.8°F2.1°C 61% 21.0 mph W33.8 kmh W 33.0 mph53.1 kmh 30.29 in1025.7 mb 0.00 in0.0 mm 0.00 in0.0 mm 0.00 in0.0 mm
08:00 AM 47.7°F8.7°C 35.2°F1.8°C 62% 18.0 mph W29.0 kmh W 40.0 mph64.4 kmh 30.28 in1025.4 mb 0.00 in0.0 mm 0.00 in0.0 mm 0.00 in0.0 mm
08:30 AM 47.8°F8.8°C 35.4°F1.9°C 62% 24.0 mph WNW38.6 kmh WNW 38.0 mph61.2 kmh 30.27 in1025.1 mb 0.00 in0.0 mm 0.00 in0.0 mm 0.00 in0.0 mm
09:00 AM 49.3°F9.6°C 35.1°F1.7°C 58% 27.0 mph W43.5 kmh W 45.0 mph72.4 kmh 30.27 in1025.1 mb 0.00 in0.0 mm 0.00 in0.0 mm 0.00 in0.0 mm
09:30 AM 50.5°F10.3°C 34.9°F1.6°C 55% 12.0 mph WSW19.3 kmh WSW 23.0 mph37.0 kmh 30.32 in1026.8 mb 0.00 in0.0 mm 0.00 in0.0 mm 0.00 in0.0 mm
10:00 AM 50.2°F10.1°C 35.6°F2.0°C 57% 5.0 mph S8.0 kmh S 14.0 mph22.5 kmh 30.32 in1026.8 mb 0.00 in0.0 mm 0.00 in0.0 mm 0.00 in0.0 mm
10:30 AM 49.3°F9.6°C 37.2°F2.9°C 63% 14.0 mph S22.5 kmh S 22.0 mph35.4 kmh 30.36 in1028.1 mb 0.00 in0.0 mm 0.00 in0.0 mm 0.00 in0.0 mm
11:00 AM 52.0°F11.1°C 36.3°F2.4°C 55% 6.0 mph SSW9.7 kmh SSW 14.0 mph22.5 kmh 30.35 in1027.8 mb 0.00 in0.0 mm 0.00 in0.0 mm 0.00 in0.0 mm
11:30 AM 53.8°F12.1°C 37.0°F2.8°C 53% 7.0 mph SSW11.3 kmh SSW 15.0 mph24.1 kmh 30.36 in1028.1 mb 0.00 in0.0 mm 0.00 in0.0 mm 0.00 in0.0 mm
12:00 PM 53.1°F11.7°C 36.9°F2.7°C 54% 12.0 mph SW19.3 kmh SW 20.0 mph32.2 kmh 30.32 in1026.8 mb 0.00 in0.0 mm 0.00 in0.0 mm 0.00 in0.0 mm
12:30 PM 54.7°F12.6°C 37.4°F3.0°C 52% 10.0 mph SW16.1 kmh SW 22.0 mph35.4 kmh 30.32 in1026.8 mb 0.00 in0.0 mm 0.00 in0.0 mm 0.00 in0.0 mm
01:00 PM 56.3°F13.5°C 37.4°F3.0°C 49% 9.0 mph WSW14.5 kmh WSW 27.0 mph43.5 kmh 30.30 in1026.1 mb 0.00 in0.0 mm 0.00 in0.0 mm 0.00 in0.0 mm
01:30 PM 55.8°F13.2°C 35.8°F2.1°C 47% 15.0 mph SW24.1 kmh SW 28.0 mph45.1 kmh 30.30 in1026.1 mb 0.00 in0.0 mm 0.00 in0.0 mm 0.00 in0.0 mm
02:00 PM 55.9°F13.3°C 35.4°F1.9°C 46% 14.0 mph WSW22.5 kmh WSW 29.0 mph46.7 kmh 30.29 in1025.7 mb 0.00 in0.0 mm 0.00 in0.0 mm 0.00 in0.0 mm
02:30 PM 56.8°F13.8°C 36.1°F2.3°C 46% 11.0 mph SW17.7 kmh SW 26.0 mph41.8 kmh 30.27 in1025.1 mb 0.00 in0.0 mm 0.00 in0.0 mm 0.00 in0.0 mm
03:00 PM 57.0°F13.9°C 36.3°F2.4°C 46% 10.0 mph SW16.1 kmh SW 18.0 mph29.0 kmh 30.26 in1024.7 mb 0.00 in0.0 mm 0.00 in0.0 mm 0.00 in0.0 mm
03:30 PM 57.0°F13.9°C 37.0°F2.8°C 47% 7.0 mph SW11.3 kmh SW 25.0 mph40.2 kmh 30.26 in1024.7 mb 0.00 in0.0 mm 0.00 in0.0 mm 0.00 in0.0 mm
04:00 PM 56.3°F13.5°C 37.4°F3.0°C 49% 12.0 mph W19.3 kmh W 29.0 mph46.7 kmh 30.23 in1023.7 mb 0.00 in0.0 mm 0.00 in0.0 mm 0.00 in0.0 mm
04:30 PM 57.0°F13.9°C 38.1°F3.4°C 49% 16.0 mph W25.7 kmh W 33.0 mph53.1 kmh 30.22 in1023.4 mb 0.00 in0.0 mm 0.00 in0.0 mm 0.00 in0.0 mm
05:00 PM 57.4°F14.1°C 37.8°F3.2°C 48% 14.0 mph W22.5 kmh W 28.0 mph45.1 kmh 30.21 in1023.0 mb 0.00 in0.0 mm 0.00 in0.0 mm 0.00 in0.0 mm
05:30 PM 57.6°F14.2°C 38.1°F3.4°C 48% 18.0 mph W29.0 kmh W 33.0 mph53.1 kmh 30.19 in1022.4 mb 0.00 in0.0 mm 0.00 in0.0 mm 0.00 in0.0 mm
06:00 PM 57.4°F14.1°C 39.4°F4.1°C 51% 17.0 mph W27.4 kmh W 27.0 mph43.5 kmh 30.18 in1022.0 mb 0.00 in0.0 mm 0.00 in0.0 mm 0.00 in0.0 mm
06:30 PM 57.6°F14.2°C 40.6°F4.8°C 53% 20.0 mph W32.2 kmh W 37.0 mph59.5 kmh 30.19 in1022.4 mb 0.00 in0.0 mm 0.00 in0.0 mm 0.00 in0.0 mm
07:00 PM 57.9°F14.4°C 41.4°F5.2°C 54% 21.0 mph W33.8 kmh W 34.0 mph54.7 kmh 30.19 in1022.4 mb 0.00 in0.0 mm 0.00 in0.0 mm 0.00 in0.0 mm
07:30 PM 57.7°F14.3°C 41.2°F5.1°C 54% 17.0 mph W27.4 kmh W 33.0 mph53.1 kmh 30.20 in1022.7 mb 0.00 in0.0 mm 0.00 in0.0 mm 0.00 in0.0 mm
08:00 PM 56.8°F13.8°C 41.4°F5.2°C 56% 16.0 mph W25.7 kmh W 28.0 mph45.1 kmh 30.20 in1022.7 mb 0.00 in0.0 mm 0.00 in0.0 mm 0.00 in0.0 mm
08:30 PM 57.0°F13.9°C 43.3°F6.3°C 60% 18.0 mph W29.0 kmh W 37.0 mph59.5 kmh 30.21 in1023.0 mb 0.00 in0.0 mm 0.00 in0.0 mm 0.00 in0.0 mm
09:00 PM 57.4°F14.1°C 44.4°F6.9°C 62% 16.0 mph W25.7 kmh W 35.0 mph56.3 kmh 30.21 in1023.0 mb 0.00 in0.0 mm 0.00 in0.0 mm 0.00 in0.0 mm
09:30 PM 57.6°F14.2°C 45.5°F7.5°C 64% 19.0 mph W30.6 kmh W 40.0 mph64.4 kmh 30.21 in1023.0 mb 0.00 in0.0 mm 0.00 in0.0 mm 0.00 in0.0 mm
10:00 PM 57.6°F14.2°C 45.5°F7.5°C 64% 19.0 mph W30.6 kmh W 30.0 mph48.3 kmh 30.20 in1022.7 mb 0.00 in0.0 mm 0.00 in0.0 mm 0.00 in0.0 mm
10:30 PM 57.6°F14.2°C 45.9°F7.7°C 65% 25.0 mph W40.2 kmh W 43.0 mph69.2 kmh 30.17 in1021.7 mb 0.00 in0.0 mm 0.00 in0.0 mm 0.00 in0.0 mm
11:00 PM 57.4°F14.1°C 46.0°F7.8°C 66% 34.0 mph WNW54.7 kmh WNW 58.0 mph93.3 kmh 30.14 in1020.7 mb 0.00 in0.0 mm 0.00 in0.0 mm 0.00 in0.0 mm
11:30 PM 56.8°F13.8°C 46.0°F7.8°C 67% 32.0 mph WNW51.5 kmh WNW 61.0 mph98.2 kmh 30.14 in1020.7 mb 0.00 in0.0 mm 0.00 in0.0 mm 0.00 in0.0 mm